createdAt,value
2019-02-09T00:00:03.634Z,-1.2
2019-02-09T00:01:03.151Z,-1.3
2019-02-09T00:02:03.657Z,-1.3
2019-02-09T00:03:02.954Z,-1.3
2019-02-09T00:04:02.743Z,-1.3
2019-02-09T00:05:48.543Z,-1.3
2019-02-09T00:06:03.177Z,-1.3
2019-02-09T00:07:03.630Z,-1.6
2019-02-09T00:08:03.225Z,-1.7
2019-02-09T00:09:02.638Z,-1.7
2019-02-09T00:10:03.193Z,-1.7
2019-02-09T00:11:03.734Z,-1.8
2019-02-09T00:12:02.920Z,-2
2019-02-09T00:13:03.326Z,-2.1
2019-02-09T00:14:03.178Z,-1.9
2019-02-09T00:15:02.834Z,-1.8
2019-02-09T00:16:03.487Z,-1.6
2019-02-09T00:17:03.148Z,-1.6
2019-02-09T00:18:03.253Z,-1.6
2019-02-09T00:19:03.911Z,-1.6
2019-02-09T00:20:03.185Z,-1.6
2019-02-09T00:21:03.256Z,-1.8
2019-02-09T00:22:03.014Z,-1.8
2019-02-09T00:23:03.637Z,-2
2019-02-09T00:24:03.298Z,-2.3
2019-02-09T00:25:03.467Z,-2.4
2019-02-09T00:26:03.091Z,-2.4
2019-02-09T00:27:03.307Z,-2.4
2019-02-09T00:28:03.520Z,-2.4
2019-02-09T00:29:02.931Z,-2.5
2019-02-09T00:30:03.626Z,-2.4
2019-02-09T00:31:02.735Z,-2.4
2019-02-09T00:32:03.340Z,-2.3
2019-02-09T00:33:02.864Z,-2.2
2019-02-09T00:34:03.035Z,-2.1
2019-02-09T00:35:03.636Z,-2.1
2019-02-09T00:36:02.978Z,-2.1
2019-02-09T00:37:03.226Z,-2
2019-02-09T00:38:03.251Z,-2.1
2019-02-09T00:39:02.625Z,-2.1
2019-02-09T00:40:03.423Z,-2.1
2019-02-09T00:41:03.126Z,-2.2
2019-02-09T00:42:03.251Z,-2.3
2019-02-09T00:43:02.696Z,-2.1
2019-02-09T00:44:02.873Z,-2.1
2019-02-09T00:45:03.466Z,-2.1
2019-02-09T00:46:03.608Z,-2.1
2019-02-09T00:47:03.233Z,-2.1
2019-02-09T00:48:03.715Z,-2
2019-02-09T00:49:03.436Z,-2
2019-02-09T00:50:03.606Z,-2
2019-02-09T00:51:03.091Z,-2
2019-02-09T00:52:03.299Z,-2
2019-02-09T00:53:02.701Z,-2
2019-02-09T00:54:03.100Z,-2
2019-02-09T00:55:03.691Z,-2
2019-02-09T00:56:03.570Z,-2.1
2019-02-09T00:57:03.235Z,-2
2019-02-09T00:58:03.532Z,-2
2019-02-09T00:59:03.139Z,-1.9
2019-02-09T01:00:03.384Z,-2
2019-02-09T01:01:02.549Z,-2.1
2019-02-09T01:02:02.970Z,-2.4
2019-02-09T01:03:03.272Z,-2.4
2019-02-09T01:04:02.543Z,-2.6
2019-02-09T01:05:02.692Z,-2.7
2019-02-09T01:06:03.808Z,-2.6
2019-02-09T01:07:03.192Z,-2.5
2019-02-09T01:08:03.677Z,-2.7
2019-02-09T01:09:02.784Z,-2.9
2019-02-09T01:10:03.431Z,-2.9
2019-02-09T01:11:03.445Z,-2.6
2019-02-09T01:12:03.381Z,-2.6
2019-02-09T01:13:03.316Z,-2.4
2019-02-09T01:14:02.938Z,-2.3
2019-02-09T01:15:03.067Z,-2.3
2019-02-09T01:16:03.508Z,-2.3
2019-02-09T01:17:02.718Z,-2.1
2019-02-09T01:18:03.499Z,-2.1
2019-02-09T01:19:03.278Z,-2
2019-02-09T01:20:03.106Z,-1.9
2019-02-09T01:21:03.809Z,-2.1
2019-02-09T01:22:03.086Z,-2.1
2019-02-09T01:23:03.464Z,-1.9
2019-02-09T01:24:03.342Z,-1.9
2019-02-09T01:25:03.561Z,-1.9
2019-02-09T01:26:02.843Z,-2
2019-02-09T01:27:03.113Z,-2.6
2019-02-09T01:28:03.558Z,-2.4
2019-02-09T01:29:03.041Z,-2.4
2019-02-09T01:30:03.483Z,-2.5
2019-02-09T01:31:02.745Z,-2.4
2019-02-09T01:32:03.427Z,-2.5
2019-02-09T01:33:02.834Z,-2.4
2019-02-09T01:34:03.237Z,-2.3
2019-02-09T01:35:03.473Z,-2.2
2019-02-09T01:36:03.031Z,-2.1
2019-02-09T01:37:03.048Z,-2
2019-02-09T01:38:02.904Z,-2
2019-02-09T01:39:03.515Z,-2.2
2019-02-09T01:40:03.470Z,-2.6
2019-02-09T01:41:02.869Z,-2.5
2019-02-09T01:42:03.241Z,-2.4
2019-02-09T01:43:02.818Z,-2.3
2019-02-09T01:44:03.523Z,-2.2
2019-02-09T01:45:02.884Z,-2.2
2019-02-09T01:46:03.467Z,-2.3
2019-02-09T01:47:02.884Z,-2.7
2019-02-09T01:48:03.442Z,-2.7
2019-02-09T01:49:02.888Z,-2.7
2019-02-09T01:50:03.623Z,-2.7
2019-02-09T01:51:03.035Z,-2.6
2019-02-09T01:52:03.520Z,-2.5
2019-02-09T01:53:03.220Z,-2.4
2019-02-09T01:54:03.688Z,-2.4
2019-02-09T01:55:03.151Z,-2.3
2019-02-09T01:56:02.895Z,-2.2
2019-02-09T01:57:02.863Z,-2.1
2019-02-09T01:58:02.712Z,-2.1
2019-02-09T01:59:03.291Z,-2
2019-02-09T02:00:10.988Z,-2
2019-02-09T02:01:03.720Z,-2
2019-02-09T02:02:03.405Z,-1.9
2019-02-09T02:03:02.849Z,-1.9
2019-02-09T02:04:03.576Z,-1.9
2019-02-09T02:05:02.822Z,-2.4
2019-02-09T02:06:03.568Z,-2.2
2019-02-09T02:07:03.520Z,-2.3
2019-02-09T02:08:03.414Z,-2.3
2019-02-09T02:09:02.637Z,-2.3
2019-02-09T02:10:03.239Z,-2.2
2019-02-09T02:11:03.663Z,-2.4
2019-02-09T02:12:02.728Z,-2.5
2019-02-09T02:13:02.699Z,-2.5
2019-02-09T02:14:02.914Z,-2.4
2019-02-09T02:15:02.762Z,-2.5
2019-02-09T02:16:03.311Z,-2.4
2019-02-09T02:17:02.860Z,-2.5
2019-02-09T02:18:03.293Z,-2.6
2019-02-09T02:19:03.279Z,-2.5
2019-02-09T02:20:03.166Z,-2.6
2019-02-09T02:21:03.525Z,-2.6
2019-02-09T02:22:03.228Z,-2.6
2019-02-09T02:23:02.919Z,-2.6
2019-02-09T02:24:03.253Z,-2.6
2019-02-09T02:25:03.569Z,-2.6
2019-02-09T02:26:03.018Z,-2.6
2019-02-09T02:27:03.634Z,-2.7
2019-02-09T02:28:03.177Z,-2.7
2019-02-09T02:29:02.587Z,-2.9
2019-02-09T02:30:03.612Z,-2.9
2019-02-09T02:31:02.894Z,-2.8
2019-02-09T02:32:03.191Z,-2.8
2019-02-09T02:33:03.513Z,-2.8
2019-02-09T02:34:03.284Z,-2.7
2019-02-09T02:35:02.896Z,-2.7
2019-02-09T02:36:03.492Z,-2.8
2019-02-09T02:37:02.851Z,-2.8
2019-02-09T02:38:03.293Z,-3
2019-02-09T02:39:03.636Z,-3
2019-02-09T02:40:03.296Z,-3.2
2019-02-09T02:41:03.584Z,-3.2
2019-02-09T02:42:03.199Z,-3.2
2019-02-09T02:43:03.605Z,-3.1
2019-02-09T02:44:03.103Z,-3.2
2019-02-09T02:45:03.710Z,-3.1
2019-02-09T02:46:03.088Z,-3.1
2019-02-09T02:47:03.029Z,-3.1
2019-02-09T02:48:03.199Z,-2.9
2019-02-09T02:49:02.942Z,-2.9
2019-02-09T02:50:03.430Z,-2.9
2019-02-09T02:51:02.804Z,-2.8
2019-02-09T02:52:03.413Z,-2.9
2019-02-09T02:53:03.045Z,-2.9
2019-02-09T02:54:03.320Z,-2.9
2019-02-09T02:55:03.103Z,-2.9
2019-02-09T02:56:03.548Z,-2.8
2019-02-09T02:57:03.045Z,-2.8
2019-02-09T02:58:03.687Z,-2.8
2019-02-09T02:59:03.145Z,-2.8
2019-02-09T03:00:03.123Z,-3
2019-02-09T03:01:03.340Z,-3.1
2019-02-09T03:02:03.599Z,-3.1
2019-02-09T03:03:03.016Z,-3.1
2019-02-09T03:04:03.537Z,-3.1
2019-02-09T03:05:03.218Z,-3.2
2019-02-09T03:06:02.765Z,-3.2
2019-02-09T03:07:03.540Z,-3.1
2019-02-09T03:08:03.138Z,-3
2019-02-09T03:09:03.510Z,-2.9
2019-02-09T03:10:02.921Z,-3
2019-02-09T03:11:03.381Z,-3.1
2019-02-09T03:12:02.864Z,-3
2019-02-09T03:13:03.218Z,-3.1
2019-02-09T03:14:03.058Z,-3.1
2019-02-09T03:15:03.524Z,-3.2
2019-02-09T03:16:03.498Z,-3.3
2019-02-09T03:17:03.180Z,-3.3
2019-02-09T03:18:02.871Z,-3.2
2019-02-09T03:19:03.318Z,-3.1
2019-02-09T03:20:02.985Z,-3.1
2019-02-09T03:21:03.680Z,-3.3
2019-02-09T03:22:03.523Z,-3.5
2019-02-09T03:23:03.588Z,-3.4
2019-02-09T03:24:02.910Z,-3.4
2019-02-09T03:25:03.529Z,-3.4
2019-02-09T03:26:02.816Z,-3.4
2019-02-09T03:27:03.624Z,-3.3
2019-02-09T03:28:02.946Z,-3.3
2019-02-09T03:29:03.566Z,-3.7
2019-02-09T03:30:03.177Z,-4.3
2019-02-09T03:31:03.378Z,-4.6
2019-02-09T03:32:03.113Z,-4.6
2019-02-09T03:33:03.436Z,-4.6
2019-02-09T03:34:02.805Z,-4.8
2019-02-09T03:35:03.256Z,-4.8
2019-02-09T03:36:02.708Z,-4.7
2019-02-09T03:37:04.127Z,-4.6
2019-02-09T03:38:02.834Z,-4.6
2019-02-09T03:39:03.593Z,-4.4
2019-02-09T03:40:03.067Z,-4.3
2019-02-09T03:41:03.647Z,-4.3
2019-02-09T03:42:03.122Z,-4.2
2019-02-09T03:43:03.589Z,-4.3
2019-02-09T03:44:03.098Z,-4.1
2019-02-09T03:45:03.321Z,-3.9
2019-02-09T03:46:02.721Z,-4.3
2019-02-09T03:47:03.313Z,-4.4
2019-02-09T03:48:02.939Z,-4.3
2019-02-09T03:49:03.559Z,-4.3
2019-02-09T03:50:03.078Z,-4.3
2019-02-09T03:51:03.448Z,-4.3
2019-02-09T03:52:02.829Z,-4.3
2019-02-09T03:53:03.343Z,-4.2
2019-02-09T03:54:02.877Z,-4.1
2019-02-09T03:55:03.637Z,-3.9
2019-02-09T03:56:03.217Z,-3.9
2019-02-09T03:57:02.791Z,-3.9
2019-02-09T03:58:03.166Z,-3.8
2019-02-09T03:59:02.831Z,-3.8
2019-02-09T04:00:03.388Z,-3.8
2019-02-09T04:01:03.594Z,-3.8
2019-02-09T04:02:03.439Z,-4.1
2019-02-09T04:03:03.043Z,-4.4
2019-02-09T04:04:03.223Z,-4.4
2019-02-09T04:05:03.358Z,-4.3
2019-02-09T04:06:02.779Z,-4.2
2019-02-09T04:07:03.229Z,-4.1
2019-02-09T04:08:03.567Z,-4.1
2019-02-09T04:09:03.042Z,-3.9
2019-02-09T04:10:02.661Z,-3.9
2019-02-09T04:11:03.431Z,-4.1
2019-02-09T04:12:03.013Z,-4.3
2019-02-09T04:13:03.406Z,-4.3
2019-02-09T04:14:02.610Z,-4.1
2019-02-09T04:15:03.665Z,-4
2019-02-09T04:16:03.576Z,-3.9
2019-02-09T04:17:02.744Z,-3.8
2019-02-09T04:18:03.461Z,-3.9
2019-02-09T04:19:03.592Z,-3.8
2019-02-09T04:20:02.991Z,-3.7
2019-02-09T04:21:03.589Z,-3.7
2019-02-09T04:22:03.123Z,-3.8
2019-02-09T04:23:03.559Z,-3.9
2019-02-09T04:24:03.107Z,-4
2019-02-09T04:25:03.715Z,-3.9
2019-02-09T04:26:03.047Z,-3.9
2019-02-09T04:27:03.508Z,-3.8
2019-02-09T04:28:03.086Z,-3.8
2019-02-09T04:29:03.529Z,-3.9
2019-02-09T04:30:03.246Z,-3.9
2019-02-09T04:31:07.136Z,-3.9
2019-02-09T04:32:02.904Z,-3.9
2019-02-09T04:33:03.313Z,-4.3
2019-02-09T04:34:03.467Z,-4.3
2019-02-09T04:35:03.129Z,-4.2
2019-02-09T04:36:03.187Z,-4.3
2019-02-09T04:37:03.443Z,-4.3
2019-02-09T04:38:02.972Z,-4.3
2019-02-09T04:39:03.235Z,-4.2
2019-02-09T04:40:02.802Z,-4.1
2019-02-09T04:41:03.308Z,-4
2019-02-09T04:42:03.634Z,-3.9
2019-02-09T04:43:03.392Z,-3.9
2019-02-09T04:44:03.704Z,-4.1
2019-02-09T04:45:03.267Z,-4.1
2019-02-09T04:46:02.636Z,-3.9
2019-02-09T04:47:03.321Z,-3.9
2019-02-09T04:48:03.699Z,-3.9
2019-02-09T04:49:03.230Z,-3.9
2019-02-09T04:50:02.664Z,-3.9
2019-02-09T04:51:03.050Z,-3.8
2019-02-09T04:52:03.697Z,-3.8
2019-02-09T04:53:03.177Z,-3.7
2019-02-09T04:54:03.789Z,-3.6
2019-02-09T04:55:02.799Z,-3.6
2019-02-09T04:56:03.583Z,-3.4
2019-02-09T04:57:03.461Z,-3.4
2019-02-09T04:58:03.329Z,-3.4
2019-02-09T04:59:02.623Z,-3.4
2019-02-09T05:00:03.585Z,-3.4
2019-02-09T05:01:03.722Z,-3.4
2019-02-09T05:02:03.331Z,-3.3
2019-02-09T05:03:05.529Z,-3.2
2019-02-09T05:04:03.191Z,-3.1
2019-02-09T05:05:03.556Z,-3.1
2019-02-09T05:06:03.151Z,-3
2019-02-09T05:07:02.684Z,-2.9
2019-02-09T05:08:03.364Z,-2.9
2019-02-09T05:09:03.671Z,-2.9
2019-02-09T05:10:03.059Z,-3.2
2019-02-09T05:11:03.503Z,-3.1
2019-02-09T05:12:02.762Z,-3.3
2019-02-09T05:13:02.677Z,-3.3
2019-02-09T05:14:03.389Z,-3.3
2019-02-09T05:15:02.878Z,-3.3
2019-02-09T05:16:03.215Z,-3.3
2019-02-09T05:17:03.574Z,-3.2
2019-02-09T05:18:03.486Z,-3.3
2019-02-09T05:19:02.692Z,-3.3
2019-02-09T05:20:03.567Z,-3.3
2019-02-09T05:21:03.603Z,-3.1
2019-02-09T05:22:02.999Z,-3
2019-02-09T05:23:02.836Z,-2.9
2019-02-09T05:24:02.980Z,-2.9
2019-02-09T05:25:03.078Z,-2.9
2019-02-09T05:26:03.196Z,-2.8
2019-02-09T05:27:03.247Z,-2.8
2019-02-09T05:28:03.072Z,-2.8
2019-02-09T05:29:03.360Z,-2.8
2019-02-09T05:30:02.802Z,-2.8
2019-02-09T05:31:02.902Z,-2.8
2019-02-09T05:32:04.062Z,-2.7
2019-02-09T05:33:03.297Z,-2.8
2019-02-09T05:34:02.799Z,-2.9
2019-02-09T05:35:03.279Z,-3
2019-02-09T05:36:02.984Z,-2.9
2019-02-09T05:37:03.215Z,-2.8
2019-02-09T05:38:03.057Z,-2.7
2019-02-09T05:39:03.558Z,-2.6
2019-02-09T05:40:03.085Z,-2.6
2019-02-09T05:41:03.404Z,-2.5
2019-02-09T05:42:03.134Z,-2.5
2019-02-09T05:43:03.422Z,-2.4
2019-02-09T05:44:02.984Z,-2.7
2019-02-09T05:45:03.181Z,-2.8
2019-02-09T05:46:02.895Z,-2.8
2019-02-09T05:47:03.418Z,-2.8
2019-02-09T05:48:02.568Z,-2.9
2019-02-09T05:49:03.139Z,-2.8
2019-02-09T05:50:02.985Z,-2.8
2019-02-09T05:51:03.428Z,-2.8
2019-02-09T05:52:02.768Z,-2.8
2019-02-09T05:53:03.456Z,-2.7
2019-02-09T05:54:02.743Z,-2.7
2019-02-09T05:55:03.519Z,-2.7
2019-02-09T05:56:02.955Z,-2.6
2019-02-09T05:57:03.194Z,-2.6
2019-02-09T05:58:02.909Z,-2.6
2019-02-09T05:59:03.587Z,-2.6
2019-02-09T06:00:03.246Z,-2.6
2019-02-09T06:01:03.555Z,-2.6
2019-02-09T06:02:03.130Z,-2.6
2019-02-09T06:03:02.819Z,-2.6
2019-02-09T06:04:03.305Z,-2.5
2019-02-09T06:05:03.579Z,-2.6
2019-02-09T06:06:03.054Z,-2.6
2019-02-09T06:07:03.355Z,-2.6
2019-02-09T06:08:03.065Z,-2.6
2019-02-09T06:09:03.480Z,-2.6
2019-02-09T06:10:03.160Z,-2.6
2019-02-09T06:11:03.426Z,-2.5
2019-02-09T06:12:02.811Z,-2.5
2019-02-09T06:13:03.058Z,-2.5
2019-02-09T06:14:03.614Z,-2.4
2019-02-09T06:15:03.422Z,-2.5
2019-02-09T06:16:03.696Z,-2.5
2019-02-09T06:17:03.090Z,-2.4
2019-02-09T06:18:03.291Z,-2.4
2019-02-09T06:19:02.767Z,-2.4
2019-02-09T06:20:03.238Z,-2.3
2019-02-09T06:21:03.208Z,-2.3
2019-02-09T06:22:03.243Z,-2.3
2019-02-09T06:23:03.091Z,-2.3
2019-02-09T06:24:03.199Z,-2.3
2019-02-09T06:25:03.889Z,-2.3
2019-02-09T06:26:03.952Z,-2.2
2019-02-09T06:27:03.461Z,-2.1
2019-02-09T06:28:03.223Z,-2.1
2019-02-09T06:29:02.883Z,-2
2019-02-09T06:30:02.998Z,-1.9
2019-02-09T06:31:03.826Z,-1.8
2019-02-09T06:32:03.028Z,-1.8
2019-02-09T06:33:03.526Z,-1.7
2019-02-09T06:34:03.030Z,-1.6
2019-02-09T06:35:03.313Z,-1.6
2019-02-09T06:36:03.022Z,-1.6
2019-02-09T06:37:03.302Z,-1.4
2019-02-09T06:38:02.927Z,-1.4
2019-02-09T06:39:03.349Z,-1.3
2019-02-09T06:40:03.714Z,-1.3
2019-02-09T06:41:03.256Z,-1.3
2019-02-09T06:42:02.839Z,-1.3
2019-02-09T06:43:04.034Z,-1.3
2019-02-09T06:44:02.885Z,-1.3
2019-02-09T06:45:03.117Z,-1.2
2019-02-09T06:46:03.249Z,-1.2
2019-02-09T06:47:02.901Z,-1.1
2019-02-09T06:48:03.296Z,-1.1
2019-02-09T06:49:02.611Z,-1.1
2019-02-09T06:50:02.977Z,-1.1
2019-02-09T06:51:02.840Z,-1.1
2019-02-09T06:52:03.059Z,-1.1
2019-02-09T06:53:02.670Z,-1.1
2019-02-09T06:54:03.418Z,-1
2019-02-09T06:55:03.042Z,-1
2019-02-09T06:56:03.114Z,-1
2019-02-09T06:57:03.779Z,-1
2019-02-09T06:58:03.209Z,-0.9
2019-02-09T06:59:03.166Z,-0.9
2019-02-09T07:00:03.420Z,-0.9
2019-02-09T07:01:02.948Z,-0.9
2019-02-09T07:02:03.167Z,-0.9
2019-02-09T07:03:03.521Z,-0.9
2019-02-09T07:04:03.136Z,-0.9
2019-02-09T07:05:03.855Z,-0.8
2019-02-09T07:06:02.726Z,-0.8
2019-02-09T07:07:03.174Z,-0.8
2019-02-09T07:08:02.699Z,-0.8
2019-02-09T07:09:03.593Z,-0.8
2019-02-09T07:10:03.702Z,-0.7
2019-02-09T07:11:02.846Z,-0.8
2019-02-09T07:12:03.720Z,-0.7
2019-02-09T07:13:03.339Z,-0.7
2019-02-09T07:14:02.838Z,-0.6
2019-02-09T07:15:03.557Z,-0.6
2019-02-09T07:16:02.935Z,-0.6
2019-02-09T07:17:02.800Z,-0.6
2019-02-09T07:18:02.988Z,-0.5
2019-02-09T07:19:03.444Z,-0.5
2019-02-09T07:20:03.273Z,-0.4
2019-02-09T07:21:03.082Z,-0.4
2019-02-09T07:22:03.692Z,-0.4
2019-02-09T07:23:03.120Z,-0.4
2019-02-09T07:24:02.813Z,-0.3
2019-02-09T07:25:03.142Z,-0.3
2019-02-09T07:26:03.408Z,-0.3
2019-02-09T07:27:03.700Z,-0.3
2019-02-09T07:28:02.897Z,-0.3
2019-02-09T07:29:03.468Z,-0.3
2019-02-09T07:30:03.040Z,-0.2
2019-02-09T07:31:03.604Z,-0.2
2019-02-09T07:32:03.535Z,-0.1
2019-02-09T07:33:02.876Z,-0.2
2019-02-09T07:34:03.281Z,-0.1
2019-02-09T07:35:03.111Z,-0.1
2019-02-09T07:36:03.666Z,-0.1
2019-02-09T07:37:02.922Z,-0.1
2019-02-09T07:38:03.424Z,-0.1
2019-02-09T07:39:03.748Z,0.1
2019-02-09T07:40:03.069Z,0.1
2019-02-09T07:41:03.499Z,0.1
2019-02-09T07:42:03.333Z,0.1
2019-02-09T07:43:02.724Z,0.1
2019-02-09T07:44:03.174Z,0.2
2019-02-09T07:45:03.186Z,0.2
2019-02-09T07:46:03.215Z,0.2
2019-02-09T07:47:03.645Z,0.2
2019-02-09T07:48:03.119Z,0.2
2019-02-09T07:49:03.461Z,0.3
2019-02-09T07:50:02.891Z,0.3
2019-02-09T07:51:03.557Z,0.3
2019-02-09T07:52:02.993Z,0.4
2019-02-09T07:53:03.604Z,0.4
2019-02-09T07:54:03.162Z,0.5
2019-02-09T07:55:03.260Z,0.5
2019-02-09T07:56:03.534Z,0.6
2019-02-09T07:57:02.878Z,0.6
2019-02-09T07:58:03.354Z,0.6
2019-02-09T07:59:03.635Z,0.6
2019-02-09T08:00:03.698Z,0.6
2019-02-09T08:01:02.663Z,0.7
2019-02-09T08:02:05.033Z,0.7
2019-02-09T08:03:03.056Z,0.8
2019-02-09T08:04:03.488Z,0.8
2019-02-09T08:05:03.077Z,0.8
2019-02-09T08:06:03.230Z,0.8
2019-02-09T08:07:03.045Z,0.8
2019-02-09T08:08:02.969Z,0.9
2019-02-09T08:09:02.994Z,0.9
2019-02-09T08:10:03.509Z,1
2019-02-09T08:11:09.568Z,1.1
2019-02-09T08:12:03.124Z,1.1
2019-02-09T08:13:02.906Z,1.1
2019-02-09T08:14:03.383Z,1.1
2019-02-09T08:15:03.259Z,1.2
2019-02-09T08:16:03.758Z,1.2
2019-02-09T08:17:02.952Z,1.3
2019-02-09T08:18:03.321Z,1.3
2019-02-09T08:19:03.239Z,1.3
2019-02-09T08:20:03.396Z,1.3
2019-02-09T08:21:03.181Z,1.3
2019-02-09T08:22:03.676Z,1.3
2019-02-09T08:23:03.021Z,1.4
2019-02-09T08:24:03.402Z,1.4
2019-02-09T08:25:02.944Z,1.4
2019-02-09T08:26:03.429Z,1.4
2019-02-09T08:27:02.746Z,1.4
2019-02-09T08:28:03.303Z,1.4
2019-02-09T08:29:03.168Z,1.4
2019-02-09T08:30:03.715Z,1.4
2019-02-09T08:31:03.224Z,1.5
2019-02-09T08:32:03.782Z,1.5
2019-02-09T08:33:03.353Z,1.5
2019-02-09T08:34:03.014Z,1.8
2019-02-09T08:35:03.755Z,1.9
2019-02-09T08:36:03.227Z,1.9
2019-02-09T08:37:03.391Z,2.1
2019-02-09T08:38:02.870Z,2.2
2019-02-09T08:39:02.886Z,2.3
2019-02-09T08:40:03.098Z,2.4
2019-02-09T08:41:03.198Z,2.4
2019-02-09T08:42:02.865Z,2.6
2019-02-09T08:43:03.196Z,2.7
2019-02-09T08:44:02.998Z,2.8
2019-02-09T08:45:03.682Z,2.9
2019-02-09T08:46:03.327Z,3.1
2019-02-09T08:47:03.648Z,3.2
2019-02-09T08:48:03.073Z,3.4
2019-02-09T08:49:03.483Z,3.5
2019-02-09T08:50:03.475Z,3.6
2019-02-09T08:51:03.783Z,3.9
2019-02-09T08:52:03.052Z,3.9
2019-02-09T08:53:03.271Z,4
2019-02-09T08:54:02.837Z,4.1
2019-02-09T08:55:03.018Z,4.1
2019-02-09T08:56:03.730Z,4.2
2019-02-09T08:57:03.317Z,4.4
2019-02-09T08:58:03.011Z,4.4
2019-02-09T08:59:03.719Z,4.4
2019-02-09T09:00:03.180Z,4.4
2019-02-09T09:01:03.635Z,4.6
2019-02-09T09:02:03.350Z,4.7
2019-02-09T09:03:03.487Z,4.7
2019-02-09T09:04:03.354Z,4.8
2019-02-09T09:05:10.168Z,4.9
2019-02-09T09:06:03.284Z,5.1
2019-02-09T09:07:03.576Z,5.1
2019-02-09T09:08:02.814Z,5.1
2019-02-09T09:09:03.537Z,5.3
2019-02-09T09:10:03.060Z,5.4
2019-02-09T09:11:03.778Z,5.6
2019-02-09T09:12:03.297Z,5.5
2019-02-09T09:13:02.742Z,5.6
2019-02-09T09:14:03.528Z,5.7
2019-02-09T09:15:03.894Z,5.7
2019-02-09T09:16:03.054Z,5.6
2019-02-09T09:17:02.733Z,5.9
2019-02-09T09:18:03.197Z,6.2
2019-02-09T09:19:03.476Z,6.2
2019-02-09T09:20:02.894Z,6.4
2019-02-09T09:21:03.516Z,6.3
2019-02-09T09:22:03.019Z,6.2
2019-02-09T09:23:03.663Z,6.2
2019-02-09T09:24:03.303Z,6.1
2019-02-09T09:25:03.852Z,5.9
2019-02-09T09:26:03.417Z,5.9
2019-02-09T09:27:02.755Z,6.1
2019-02-09T09:28:03.419Z,6.3
2019-02-09T09:29:03.232Z,6.3
2019-02-09T09:30:02.843Z,6.7
2019-02-09T09:31:03.470Z,6.8
2019-02-09T09:32:03.724Z,6.9
2019-02-09T09:33:03.071Z,6.9
2019-02-09T09:34:02.777Z,6.9
2019-02-09T09:35:03.274Z,7.1
2019-02-09T09:36:02.993Z,7.2
2019-02-09T09:37:03.183Z,7.4
2019-02-09T09:38:02.781Z,7.6
2019-02-09T09:39:03.178Z,7.8
2019-02-09T09:40:02.985Z,8
2019-02-09T09:41:03.476Z,8
2019-02-09T09:42:03.020Z,8.2
2019-02-09T09:43:03.470Z,8.1
2019-02-09T09:44:02.881Z,7.9
2019-02-09T09:45:03.355Z,7.9
2019-02-09T09:46:03.670Z,7.6
2019-02-09T09:47:03.259Z,7.4
2019-02-09T09:48:03.251Z,7.1
2019-02-09T09:49:03.686Z,7.1
2019-02-09T09:50:03.708Z,7.1
2019-02-09T09:51:03.634Z,7
2019-02-09T09:52:03.355Z,7
2019-02-09T09:53:02.892Z,6.8
2019-02-09T09:54:03.613Z,6.8
2019-02-09T09:55:03.674Z,6.8
2019-02-09T09:56:03.681Z,6.8
2019-02-09T09:57:03.497Z,6.8
2019-02-09T09:58:02.595Z,6.8
2019-02-09T09:59:03.502Z,6.9
2019-02-09T10:00:03.036Z,6.9
2019-02-09T10:01:03.173Z,6.8
2019-02-09T10:02:03.815Z,6.8
2019-02-09T10:03:03.197Z,6.6
2019-02-09T10:04:03.415Z,6.5
2019-02-09T10:05:02.842Z,6.6
2019-02-09T10:06:03.062Z,6.6
2019-02-09T10:07:02.800Z,6.5
2019-02-09T10:08:03.506Z,6.5
2019-02-09T10:09:03.074Z,6.5
2019-02-09T10:10:03.364Z,6.4
2019-02-09T10:11:03.121Z,6.4
2019-02-09T10:12:03.558Z,6.4
2019-02-09T10:13:03.015Z,6.3
2019-02-09T10:14:09.264Z,6.3
2019-02-09T10:15:03.244Z,6.4
2019-02-09T10:16:02.779Z,6.3
2019-02-09T10:17:02.920Z,6.4
2019-02-09T10:18:03.492Z,6.3
2019-02-09T10:19:03.233Z,6.3
2019-02-09T10:20:03.884Z,6.6
2019-02-09T10:21:02.780Z,6.4
2019-02-09T10:22:03.704Z,6.6
2019-02-09T10:23:03.287Z,6.8
2019-02-09T10:24:03.060Z,7
2019-02-09T10:25:03.455Z,6.8
2019-02-09T10:26:03.277Z,7
2019-02-09T10:27:03.278Z,7
2019-02-09T10:28:03.639Z,7.6
2019-02-09T10:29:03.129Z,7.7
2019-02-09T10:30:02.918Z,7.8
2019-02-09T10:31:03.149Z,7.7
2019-02-09T10:32:03.306Z,7.4
2019-02-09T10:33:03.825Z,7.4
2019-02-09T10:34:02.793Z,7.7
2019-02-09T10:35:03.733Z,7.8
2019-02-09T10:36:03.128Z,7.8
2019-02-09T10:37:03.106Z,7.9
2019-02-09T10:38:02.786Z,8
2019-02-09T10:39:03.072Z,8.1
2019-02-09T10:40:03.532Z,8.1
2019-02-09T10:41:02.882Z,8.2
2019-02-09T10:42:03.120Z,8.4
2019-02-09T10:43:02.986Z,8.6
2019-02-09T10:44:03.467Z,8.7
2019-02-09T10:45:02.736Z,8.9
2019-02-09T10:46:03.542Z,8.9
2019-02-09T10:47:03.067Z,8.9
2019-02-09T10:48:03.791Z,8.9
2019-02-09T10:49:03.268Z,9.1
2019-02-09T10:50:03.580Z,9
2019-02-09T10:51:03.225Z,9
2019-02-09T10:52:03.542Z,9.1
2019-02-09T10:53:02.978Z,9.1
2019-02-09T10:54:03.193Z,9.1
2019-02-09T10:55:03.110Z,9.2
2019-02-09T10:56:03.227Z,9.3
2019-02-09T10:57:03.369Z,9.3
2019-02-09T10:58:03.320Z,9.5
2019-02-09T10:59:03.230Z,9.3
2019-02-09T11:00:02.952Z,9.3
2019-02-09T11:01:03.508Z,9.4
2019-02-09T11:02:03.111Z,9.3
2019-02-09T11:03:03.678Z,9.4
2019-02-09T11:04:02.879Z,9.2
2019-02-09T11:05:03.560Z,9.3
2019-02-09T11:06:03.123Z,9.4
2019-02-09T11:07:03.603Z,9.3
2019-02-09T11:08:03.198Z,9.2
2019-02-09T11:09:03.486Z,9.1
2019-02-09T11:10:02.933Z,9.3
2019-02-09T11:11:02.815Z,9.3
2019-02-09T11:12:03.229Z,9
2019-02-09T11:13:03.665Z,9.1
2019-02-09T11:14:03.547Z,9.2
2019-02-09T11:15:03.103Z,9.3
2019-02-09T11:16:03.560Z,9.5
2019-02-09T11:17:02.973Z,9.4
2019-02-09T11:18:03.550Z,9.4
2019-02-09T11:19:03.050Z,9.1
2019-02-09T11:20:03.636Z,9.1
2019-02-09T11:21:03.084Z,8.8
2019-02-09T11:22:03.426Z,8.5
2019-02-09T11:23:02.974Z,8.4
2019-02-09T11:24:03.396Z,8.4
2019-02-09T11:25:03.026Z,8.4
2019-02-09T11:26:03.803Z,8.3
2019-02-09T11:27:03.173Z,8.2
2019-02-09T11:28:02.806Z,8.1
2019-02-09T11:29:03.597Z,8.1
2019-02-09T11:30:02.863Z,8.1
2019-02-09T11:31:03.467Z,8.1
2019-02-09T11:32:03.278Z,8.1
2019-02-09T11:33:03.524Z,8.3
2019-02-09T11:34:03.198Z,8.3
2019-02-09T11:35:03.575Z,8.2
2019-02-09T11:36:02.925Z,8.1
2019-02-09T11:37:03.321Z,7.9
2019-02-09T11:38:03.151Z,7.9
2019-02-09T11:39:03.105Z,7.7
2019-02-09T11:40:03.468Z,7.8
2019-02-09T11:41:02.999Z,7.8
2019-02-09T11:42:03.407Z,7.8
2019-02-09T11:43:03.123Z,7.8
2019-02-09T11:44:03.283Z,7.7
2019-02-09T11:45:03.150Z,7.7
2019-02-09T11:46:03.364Z,7.7
2019-02-09T11:47:03.548Z,7.8
2019-02-09T11:48:02.924Z,8
2019-02-09T11:49:03.505Z,8.1
2019-02-09T11:50:02.883Z,8.2
2019-02-09T11:51:02.762Z,8.3
2019-02-09T11:52:03.594Z,8.1
2019-02-09T11:53:03.788Z,8.1
2019-02-09T11:54:03.020Z,8.1
2019-02-09T11:55:03.943Z,8.1
2019-02-09T11:56:03.203Z,8.1
2019-02-09T11:57:03.448Z,8.1
2019-02-09T11:58:02.790Z,8.2
2019-02-09T11:59:03.283Z,8.3
2019-02-09T12:00:03.448Z,8.2
2019-02-09T12:01:03.119Z,7.9
2019-02-09T12:02:02.878Z,7.8
2019-02-09T12:03:16.460Z,7.8
2019-02-09T12:04:02.915Z,7.7
2019-02-09T12:05:03.225Z,7.6
2019-02-09T12:06:02.853Z,7.6
2019-02-09T12:07:03.180Z,7.6
2019-02-09T12:08:02.864Z,7.5
2019-02-09T12:09:03.171Z,7.4
2019-02-09T12:10:03.323Z,7.4
2019-02-09T12:11:03.425Z,7.5
2019-02-09T12:12:02.718Z,7.6
2019-02-09T12:13:02.941Z,7.6
2019-02-09T12:14:03.479Z,7.6
2019-02-09T12:15:03.543Z,7.6
2019-02-09T12:16:02.734Z,7.4
2019-02-09T12:17:03.151Z,7.4
2019-02-09T12:18:03.732Z,7.4
2019-02-09T12:19:03.241Z,7.4
2019-02-09T12:20:03.322Z,7.5
2019-02-09T12:21:03.079Z,7.5
2019-02-09T12:22:03.195Z,7.6
2019-02-09T12:23:03.781Z,7.6
2019-02-09T12:24:03.195Z,7.6
2019-02-09T12:25:03.735Z,7.5
2019-02-09T12:26:02.945Z,7.6
2019-02-09T12:27:03.597Z,7.6
2019-02-09T12:28:03.596Z,7.7
2019-02-09T12:29:02.853Z,7.8
2019-02-09T12:30:02.820Z,7.8
2019-02-09T12:31:02.763Z,8
2019-02-09T12:32:03.394Z,7.9
2019-02-09T12:33:03.692Z,7.9
2019-02-09T12:34:03.389Z,8.1
2019-02-09T12:35:03.815Z,8.3
2019-02-09T12:36:02.893Z,8.3
2019-02-09T12:37:03.313Z,8.4
2019-02-09T12:38:03.310Z,8.4
2019-02-09T12:39:03.634Z,8.4
2019-02-09T12:40:03.251Z,8.3
2019-02-09T12:41:02.917Z,8.5
2019-02-09T12:42:03.103Z,8.4
2019-02-09T12:43:02.521Z,8.4
2019-02-09T12:44:03.923Z,8.2
2019-02-09T12:45:03.457Z,7.8
2019-02-09T12:46:02.708Z,7.8
2019-02-09T12:47:03.736Z,8
2019-02-09T12:48:02.861Z,8.1
2019-02-09T12:49:03.391Z,8.1
2019-02-09T12:50:03.022Z,8.1
2019-02-09T12:51:02.968Z,8.3
2019-02-09T12:52:02.855Z,8.3
2019-02-09T12:53:03.207Z,8.3
2019-02-09T12:54:03.683Z,8.3
2019-02-09T12:55:03.063Z,8.3
2019-02-09T12:56:03.446Z,8.3
2019-02-09T12:57:03.492Z,8.3
2019-02-09T12:58:03.662Z,8.1
2019-02-09T12:59:02.999Z,8.2
2019-02-09T13:00:03.195Z,8.1
2019-02-09T13:01:03.590Z,8.1
2019-02-09T13:02:03.334Z,8.1
2019-02-09T13:03:03.076Z,7.9
2019-02-09T13:04:02.829Z,8
2019-02-09T13:05:03.211Z,7.9
2019-02-09T13:06:02.946Z,7.9
2019-02-09T13:07:02.902Z,7.9
2019-02-09T13:08:03.366Z,7.9
2019-02-09T13:09:03.103Z,7.8
2019-02-09T13:10:03.242Z,7.7
2019-02-09T13:11:03.551Z,7.8
2019-02-09T13:12:03.263Z,7.8
2019-02-09T13:13:03.752Z,7.8
2019-02-09T13:14:03.225Z,7.7
2019-02-09T13:15:03.544Z,7.7
2019-02-09T13:16:03.831Z,7.6
2019-02-09T13:17:03.394Z,7.6
2019-02-09T13:18:03.611Z,7.6
2019-02-09T13:19:03.343Z,7.6
2019-02-09T13:20:02.809Z,7.6
2019-02-09T13:21:03.342Z,7.6
2019-02-09T13:22:03.256Z,7.6
2019-02-09T13:23:03.471Z,7.7
2019-02-09T13:24:02.924Z,7.6
2019-02-09T13:25:03.368Z,7.4
2019-02-09T13:26:03.756Z,7.5
2019-02-09T13:27:02.601Z,7.4
2019-02-09T13:28:02.603Z,7.4
2019-02-09T13:29:03.121Z,7.5
2019-02-09T13:30:02.723Z,7.5
2019-02-09T13:31:03.289Z,7.6
2019-02-09T13:32:02.930Z,7.5
2019-02-09T13:33:03.097Z,7.4
2019-02-09T13:34:02.934Z,7.5